sensor_id;sensor_type;location;lat;lon;timestamp;temperature;humidity
29571;DHT22;16814;52.118;11.436;2023-06-14T00:01:30;14.80;87.80
29571;DHT22;16814;52.118;11.436;2023-06-14T00:04:01;14.60;88.20
29571;DHT22;16814;52.118;11.436;2023-06-14T00:06:29;14.80;88.00
29571;DHT22;16814;52.118;11.436;2023-06-14T00:08:54;14.60;89.40
29571;DHT22;16814;52.118;11.436;2023-06-14T00:11:21;14.70;88.60
29571;DHT22;16814;52.118;11.436;2023-06-14T00:13:47;14.60;89.50
29571;DHT22;16814;52.118;11.436;2023-06-14T00:16:15;14.60;88.90
29571;DHT22;16814;52.118;11.436;2023-06-14T00:18:44;14.60;89.90
29571;DHT22;16814;52.118;11.436;2023-06-14T00:21:13;14.60;88.50
29571;DHT22;16814;52.118;11.436;2023-06-14T00:23:41;14.70;90.00
29571;DHT22;16814;52.118;11.436;2023-06-14T00:26:09;14.60;90.40
29571;DHT22;16814;52.118;11.436;2023-06-14T00:28:38;14.60;88.50
29571;DHT22;16814;52.118;11.436;2023-06-14T00:31:05;14.60;89.40
29571;DHT22;16814;52.118;11.436;2023-06-14T00:33:32;14.60;89.90
29571;DHT22;16814;52.118;11.436;2023-06-14T00:35:59;14.70;89.50
29571;DHT22;16814;52.118;11.436;2023-06-14T00:38:27;14.80;89.80
29571;DHT22;16814;52.118;11.436;2023-06-14T00:40:52;14.70;90.00
29571;DHT22;16814;52.118;11.436;2023-06-14T00:43:19;14.70;89.50
29571;DHT22;16814;52.118;11.436;2023-06-14T00:45:46;14.80;89.50
29571;DHT22;16814;52.118;11.436;2023-06-14T00:48:23;14.80;89.00
29571;DHT22;16814;52.118;11.436;2023-06-14T00:50:52;14.60;90.50
29571;DHT22;16814;52.118;11.436;2023-06-14T00:53:19;14.40;90.80
29571;DHT22;16814;52.118;11.436;2023-06-14T00:55:58;14.40;90.80
29571;DHT22;16814;52.118;11.436;2023-06-14T00:58:25;14.30;91.20
29571;DHT22;16814;52.118;11.436;2023-06-14T01:00:53;14.20;91.60
29571;DHT22;16814;52.118;11.436;2023-06-14T01:03:24;14.30;90.60
29571;DHT22;16814;52.118;11.436;2023-06-14T01:05:56;14.30;90.80
29571;DHT22;16814;52.118;11.436;2023-06-14T01:08:57;14.10;91.60
29571;DHT22;16814;52.118;11.436;2023-06-14T01:11:32;14.00;92.30
29571;DHT22;16814;52.118;11.436;2023-06-14T01:14:05;14.00;92.50
29571;DHT22;16814;52.118;11.436;2023-06-14T01:16:34;13.80;92.00
29571;DHT22;16814;52.118;11.436;2023-06-14T01:19:01;13.80;92.70
29571;DHT22;16814;52.118;11.436;2023-06-14T01:21:38;13.70;92.70
29571;DHT22;16814;52.118;11.436;2023-06-14T01:24:12;13.80;93.20
29571;DHT22;16814;52.118;11.436;2023-06-14T01:26:39;13.70;93.60
29571;DHT22;16814;52.118;11.436;2023-06-14T01:29:12;13.50;93.10
29571;DHT22;16814;52.118;11.436;2023-06-14T01:31:44;13.60;92.80
29571;DHT22;16814;52.118;11.436;2023-06-14T01:34:12;13.50;93.10
29571;DHT22;16814;52.118;11.436;2023-06-14T01:36:42;13.50;93.30
29571;DHT22;16814;52.118;11.436;2023-06-14T01:39:11;13.40;94.50
29571;DHT22;16814;52.118;11.436;2023-06-14T01:41:42;13.50;94.00
29571;DHT22;16814;52.118;11.436;2023-06-14T01:44:18;13.60;93.40
29571;DHT22;16814;52.118;11.436;2023-06-14T01:46:48;13.70;92.90
29571;DHT22;16814;52.118;11.436;2023-06-14T01:49:16;13.90;92.80
29571;DHT22;16814;52.118;11.436;2023-06-14T01:51:43;14.20;92.80
29571;DHT22;16814;52.118;11.436;2023-06-14T01:54:11;14.40;92.40
29571;DHT22;16814;52.118;11.436;2023-06-14T01:56:36;14.50;91.80
29571;DHT22;16814;52.118;11.436;2023-06-14T01:59:03;14.50;91.30
29571;DHT22;16814;52.118;11.436;2023-06-14T02:01:31;14.50;91.70
29571;DHT22;16814;52.118;11.436;2023-06-14T02:04:02;14.50;91.60
29571;DHT22;16814;52.118;11.436;2023-06-14T02:06:29;14.50;91.70
29571;DHT22;16814;52.118;11.436;2023-06-14T02:08:54;14.50;91.60
29571;DHT22;16814;52.118;11.436;2023-06-14T02:11:21;14.20;91.50
29571;DHT22;16814;52.118;11.436;2023-06-14T02:13:49;14.10;92.30
29571;DHT22;16814;52.118;11.436;2023-06-14T02:16:16;13.90;92.70
29571;DHT22;16814;52.118;11.436;2023-06-14T02:18:45;13.60;93.40
29571;DHT22;16814;52.118;11.436;2023-06-14T02:21:13;13.50;93.30
29571;DHT22;16814;52.118;11.436;2023-06-14T02:23:40;13.40;94.00
29571;DHT22;16814;52.118;11.436;2023-06-14T02:26:07;13.40;94.00
29571;DHT22;16814;52.118;11.436;2023-06-14T02:28:34;13.40;94.30
29571;DHT22;16814;52.118;11.436;2023-06-14T02:31:01;13.40;94.60
29571;DHT22;16814;52.118;11.436;2023-06-14T02:33:29;13.30;94.90
29571;DHT22;16814;52.118;11.436;2023-06-14T02:35:57;13.20;95.30
29571;DHT22;16814;52.118;11.436;2023-06-14T02:38:23;13.50;95.30
29571;DHT22;16814;52.118;11.436;2023-06-14T02:40:50;13.70;94.80
29571;DHT22;16814;52.118;11.436;2023-06-14T02:43:17;13.90;94.40
29571;DHT22;16814;52.118;11.436;2023-06-14T02:45:43;13.90;94.00
29571;DHT22;16814;52.118;11.436;2023-06-14T02:48:11;13.80;94.10
29571;DHT22;16814;52.118;11.436;2023-06-14T02:50:44;13.60;94.40
29571;DHT22;16814;52.118;11.436;2023-06-14T02:53:12;13.70;94.20
29571;DHT22;16814;52.118;11.436;2023-06-14T02:55:42;13.70;94.20
29571;DHT22;16814;52.118;11.436;2023-06-14T02:58:09;13.70;94.00
29571;DHT22;16814;52.118;11.436;2023-06-14T03:00:39;13.50;94.60
29571;DHT22;16814;52.118;11.436;2023-06-14T03:03:08;13.30;95.10
29571;DHT22;16814;52.118;11.436;2023-06-14T03:05:48;13.30;95.10
29571;DHT22;16814;52.118;11.436;2023-06-14T03:08:19;13.40;94.70
29571;DHT22;16814;52.118;11.436;2023-06-14T03:10:52;13.30;94.60
29571;DHT22;16814;52.118;11.436;2023-06-14T03:13:23;13.40;94.60
29571;DHT22;16814;52.118;11.436;2023-06-14T03:15:50;13.40;94.30
29571;DHT22;16814;52.118;11.436;2023-06-14T03:18:19;13.30;94.30
29571;DHT22;16814;52.118;11.436;2023-06-14T03:20:47;13.20;94.70
29571;DHT22;16814;52.118;11.436;2023-06-14T03:23:14;13.30;94.60
29571;DHT22;16814;52.118;11.436;2023-06-14T03:25:47;13.10;94.90
29571;DHT22;16814;52.118;11.436;2023-06-14T03:28:16;13.10;95.30
29571;DHT22;16814;52.118;11.436;2023-06-14T03:30:44;13.20;95.70
29571;DHT22;16814;52.118;11.436;2023-06-14T03:33:12;13.20;95.70
29571;DHT22;16814;52.118;11.436;2023-06-14T03:35:39;13.30;95.70
29571;DHT22;16814;52.118;11.436;2023-06-14T03:38:05;13.40;95.50
29571;DHT22;16814;52.118;11.436;2023-06-14T03:40:32;13.20;97.10
29571;DHT22;16814;52.118;11.436;2023-06-14T03:42:58;12.80;98.50
29571;DHT22;16814;52.118;11.436;2023-06-14T03:45:31;12.50;99.90
29571;DHT22;16814;52.118;11.436;2023-06-14T03:47:58;12.20;99.90
29571;DHT22;16814;52.118;11.436;2023-06-14T03:50:28;12.20;99.90
29571;DHT22;16814;52.118;11.436;2023-06-14T03:52:55;12.10;99.90
29571;DHT22;16814;52.118;11.436;2023-06-14T03:55:21;12.00;99.90
29571;DHT22;16814;52.118;11.436;2023-06-14T03:57:51;12.10;99.90
29571;DHT22;16814;52.118;11.436;2023-06-14T04:00:19;12.30;99.90
29571;DHT22;16814;52.118;11.436;2023-06-14T04:02:46;12.40;99.90
29571;DHT22;16814;52.118;11.436;2023-06-14T04:05:13;12.40;99.90
29571;DHT22;16814;52.118;11.436;2023-06-14T04:07:39;12.30;99.90
29571;DHT22;16814;52.118;11.436;2023-06-14T04:10:12;12.20;99.90
29571;DHT22;16814;52.118;11.436;2023-06-14T04:12:42;12.30;99.90
29571;DHT22;16814;52.118;11.436;2023-06-14T04:15:10;12.30;99.90
29571;DHT22;16814;52.118;11.436;2023-06-14T04:17:37;12.30;99.90
29571;DHT22;16814;52.118;11.436;2023-06-14T04:20:06;12.40;99.90
29571;DHT22;16814;52.118;11.436;2023-06-14T04:22:36;12.50;99.90
29571;DHT22;16814;52.118;11.436;2023-06-14T04:25:04;12.60;99.90
29571;DHT22;16814;52.118;11.436;2023-06-14T04:27:31;12.60;99.90
29571;DHT22;16814;52.118;11.436;2023-06-14T04:30:05;12.70;99.90
29571;DHT22;16814;52.118;11.436;2023-06-14T04:32:34;12.70;99.90
29571;DHT22;16814;52.118;11.436;2023-06-14T04:35:10;12.80;99.90
29571;DHT22;16814;52.118;11.436;2023-06-14T04:37:38;12.80;99.90
29571;DHT22;16814;52.118;11.436;2023-06-14T04:40:10;12.90;99.90
29571;DHT22;16814;52.118;11.436;2023-06-14T04:42:37;12.90;99.90
29571;DHT22;16814;52.118;11.436;2023-06-14T04:45:06;12.90;99.90
29571;DHT22;16814;52.118;11.436;2023-06-14T04:47:33;13.00;99.90
29571;DHT22;16814;52.118;11.436;2023-06-14T04:50:00;13.00;99.90
29571;DHT22;16814;52.118;11.436;2023-06-14T04:52:27;13.20;99.90
29571;DHT22;16814;52.118;11.436;2023-06-14T04:54:55;13.30;99.90
29571;DHT22;16814;52.118;11.436;2023-06-14T04:57:22;13.40;99.90
29571;DHT22;16814;52.118;11.436;2023-06-14T04:59:52;13.50;99.90
29571;DHT22;16814;52.118;11.436;2023-06-14T05:02:23;13.90;99.90
29571;DHT22;16814;52.118;11.436;2023-06-14T05:04:54;14.40;99.90
29571;DHT22;16814;52.118;11.436;2023-06-14T05:07:26;14.40;99.90
29571;DHT22;16814;52.118;11.436;2023-06-14T05:09:53;14.50;99.90
29571;DHT22;16814;52.118;11.436;2023-06-14T05:12:23;14.50;99.90
29571;DHT22;16814;52.118;11.436;2023-06-14T05:14:49;14.40;99.90
29571;DHT22;16814;52.118;11.436;2023-06-14T05:17:18;14.40;99.90
29571;DHT22;16814;52.118;11.436;2023-06-14T05:19:45;14.40;99.90
29571;DHT22;16814;52.118;11.436;2023-06-14T05:22:13;14.40;99.90
29571;DHT22;16814;52.118;11.436;2023-06-14T05:24:41;14.90;99.90
29571;DHT22;16814;52.118;11.436;2023-06-14T05:27:07;15.90;99.90
29571;DHT22;16814;52.118;11.436;2023-06-14T05:29:34;16.70;99.90
29571;DHT22;16814;52.118;11.436;2023-06-14T05:32:09;18.30;99.90
29571;DHT22;16814;52.118;11.436;2023-06-14T05:34:37;17.40;99.90
29571;DHT22;16814;52.118;11.436;2023-06-14T05:37:03;17.50;99.90
29571;DHT22;16814;52.118;11.436;2023-06-14T05:39:32;17.80;99.90
29571;DHT22;16814;52.118;11.436;2023-06-14T05:41:59;18.10;99.30
29571;DHT22;16814;52.118;11.436;2023-06-14T05:44:27;18.10;98.90
29571;DHT22;16814;52.118;11.436;2023-06-14T05:46:59;18.30;98.80
29571;DHT22;16814;52.118;11.436;2023-06-14T05:49:24;18.90;97.80
29571;DHT22;16814;52.118;11.436;2023-06-14T05:51:53;19.20;96.80
29571;DHT22;16814;52.118;11.436;2023-06-14T05:54:19;19.70;95.80
29571;DHT22;16814;52.118;11.436;2023-06-14T05:56:45;20.10;94.70
29571;DHT22;16814;52.118;11.436;2023-06-14T05:59:13;20.10;94.20
29571;DHT22;16814;52.118;11.436;2023-06-14T06:01:43;20.50;93.40
29571;DHT22;16814;52.118;11.436;2023-06-14T06:04:10;20.70;92.90
29571;DHT22;16814;52.118;11.436;2023-06-14T06:06:37;20.60;92.50
29571;DHT22;16814;52.118;11.436;2023-06-14T06:09:05;20.70;92.30
29571;DHT22;16814;52.118;11.436;2023-06-14T06:11:33;20.50;92.20
29571;DHT22;16814;52.118;11.436;2023-06-14T06:14:00;20.20;92.60
29571;DHT22;16814;52.118;11.436;2023-06-14T06:16:27;20.20;92.70
29571;DHT22;16814;52.118;11.436;2023-06-14T06:18:54;20.30;91.90
29571;DHT22;16814;52.118;11.436;2023-06-14T06:21:22;20.30;91.60
29571;DHT22;16814;52.118;11.436;2023-06-14T06:23:50;20.10;91.70
29571;DHT22;16814;52.118;11.436;2023-06-14T06:26:27;19.90;91.80
29571;DHT22;16814;52.118;11.436;2023-06-14T06:28:55;20.00;92.20
29571;DHT22;16814;52.118;11.436;2023-06-14T06:31:24;19.50;92.50
29571;DHT22;16814;52.118;11.436;2023-06-14T06:33:56;19.60;92.50
29571;DHT22;16814;52.118;11.436;2023-06-14T06:36:23;19.50;92.30
29571;DHT22;16814;52.118;11.436;2023-06-14T06:38:52;19.50;92.80
29571;DHT22;16814;52.118;11.436;2023-06-14T06:41:19;19.30;93.10
29571;DHT22;16814;52.118;11.436;2023-06-14T06:43:48;19.20;92.50
29571;DHT22;16814;52.118;11.436;2023-06-14T06:46:13;19.30;92.60
29571;DHT22;16814;52.118;11.436;2023-06-14T06:48:42;19.40;93.00
29571;DHT22;16814;52.118;11.436;2023-06-14T06:51:09;19.20;92.30
29571;DHT22;16814;52.118;11.436;2023-06-14T06:53:41;19.20;92.60
29571;DHT22;16814;52.118;11.436;2023-06-14T06:56:08;19.30;92.50
29571;DHT22;16814;52.118;11.436;2023-06-14T06:58:37;19.50;92.90
29571;DHT22;16814;52.118;11.436;2023-06-14T07:01:04;19.90;92.20
29571;DHT22;16814;52.118;11.436;2023-06-14T07:03:31;19.50;92.10
29571;DHT22;16814;52.118;11.436;2023-06-14T07:05:58;19.80;91.80
29571;DHT22;16814;52.118;11.436;2023-06-14T07:08:26;20.20;91.80
29571;DHT22;16814;52.118;11.436;2023-06-14T07:10:54;20.50;91.10
29571;DHT22;16814;52.118;11.436;2023-06-14T07:13:20;20.60;90.30
29571;DHT22;16814;52.118;11.436;2023-06-14T07:15:48;20.60;89.70
29571;DHT22;16814;52.118;11.436;2023-06-14T07:18:20;20.80;89.10
29571;DHT22;16814;52.118;11.436;2023-06-14T07:20:48;20.60;88.50
29571;DHT22;16814;52.118;11.436;2023-06-14T07:23:18;20.90;89.20
29571;DHT22;16814;52.118;11.436;2023-06-14T07:25:45;21.20;88.30
29571;DHT22;16814;52.118;11.436;2023-06-14T07:28:13;21.40;87.80
29571;DHT22;16814;52.118;11.436;2023-06-14T07:30:42;21.10;87.10
29571;DHT22;16814;52.118;11.436;2023-06-14T07:33:10;21.10;86.90
29571;DHT22;16814;52.118;11.436;2023-06-14T07:35:41;21.10;86.90
29571;DHT22;16814;52.118;11.436;2023-06-14T07:38:09;21.50;85.00
29571;DHT22;16814;52.118;11.436;2023-06-14T07:40:36;21.60;85.90
29571;DHT22;16814;52.118;11.436;2023-06-14T07:43:01;21.90;85.00
29571;DHT22;16814;52.118;11.436;2023-06-14T07:45:29;22.40;82.70
29571;DHT22;16814;52.118;11.436;2023-06-14T07:47:56;22.50;80.60
29571;DHT22;16814;52.118;11.436;2023-06-14T07:50:23;22.90;80.10
29571;DHT22;16814;52.118;11.436;2023-06-14T07:52:52;22.90;79.80
29571;DHT22;16814;52.118;11.436;2023-06-14T07:55:18;22.70;79.90
29571;DHT22;16814;52.118;11.436;2023-06-14T07:57:45;22.90;81.20
29571;DHT22;16814;52.118;11.436;2023-06-14T08:00:15;22.80;77.60
29571;DHT22;16814;52.118;11.436;2023-06-14T08:02:44;22.30;77.10
29571;DHT22;16814;52.118;11.436;2023-06-14T08:05:12;22.50;77.70
29571;DHT22;16814;52.118;11.436;2023-06-14T08:07:40;22.80;75.90
29571;DHT22;16814;52.118;11.436;2023-06-14T08:10:09;22.90;75.80
29571;DHT22;16814;52.118;11.436;2023-06-14T08:12:37;22.40;75.70
29571;DHT22;16814;52.118;11.436;2023-06-14T08:15:04;22.50;77.70
29571;DHT22;16814;52.118;11.436;2023-06-14T08:17:33;22.90;77.00
29571;DHT22;16814;52.118;11.436;2023-06-14T08:20:01;24.30;76.30
29571;DHT22;16814;52.118;11.436;2023-06-14T08:22:29;23.70;74.20
29571;DHT22;16814;52.118;11.436;2023-06-14T08:25:01;23.70;71.80
29571;DHT22;16814;52.118;11.436;2023-06-14T08:27:28;23.60;71.10
29571;DHT22;16814;52.118;11.436;2023-06-14T08:29:55;23.60;72.40
29571;DHT22;16814;52.118;11.436;2023-06-14T08:32:22;23.70;72.20
29571;DHT22;16814;52.118;11.436;2023-06-14T08:34:49;23.80;71.40
29571;DHT22;16814;52.118;11.436;2023-06-14T08:37:15;23.50;72.80
29571;DHT22;16814;52.118;11.436;2023-06-14T08:39:42;23.70;72.40
29571;DHT22;16814;52.118;11.436;2023-06-14T08:42:12;24.10;72.80
29571;DHT22;16814;52.118;11.436;2023-06-14T08:44:43;23.90;70.20
29571;DHT22;16814;52.118;11.436;2023-06-14T08:47:11;23.40;71.50
29571;DHT22;16814;52.118;11.436;2023-06-14T08:49:39;23.20;71.90
29571;DHT22;16814;52.118;11.436;2023-06-14T08:52:09;23.30;72.60
29571;DHT22;16814;52.118;11.436;2023-06-14T08:54:40;23.30;72.20
29571;DHT22;16814;52.118;11.436;2023-06-14T08:57:12;23.70;72.60
29571;DHT22;16814;52.118;11.436;2023-06-14T08:59:47;24.10;72.80
29571;DHT22;16814;52.118;11.436;2023-06-14T09:02:19;24.10;70.70
29571;DHT22;16814;52.118;11.436;2023-06-14T09:04:47;24.50;70.90
29571;DHT22;16814;52.118;11.436;2023-06-14T09:07:12;24.60;69.50
29571;DHT22;16814;52.118;11.436;2023-06-14T09:09:41;24.40;68.90
29571;DHT22;16814;52.118;11.436;2023-06-14T09:12:17;24.30;69.10
29571;DHT22;16814;52.118;11.436;2023-06-14T09:14:44;24.20;70.70
29571;DHT22;16814;52.118;11.436;2023-06-14T09:17:15;24.30;70.30
29571;DHT22;16814;52.118;11.436;2023-06-14T09:19:41;24.20;70.50
29571;DHT22;16814;52.118;11.436;2023-06-14T09:22:07;24.20;69.70
29571;DHT22;16814;52.118;11.436;2023-06-14T09:24:37;24.10;70.10
29571;DHT22;16814;52.118;11.436;2023-06-14T09:27:06;23.90;70.90
29571;DHT22;16814;52.118;11.436;2023-06-14T09:29:33;23.80;70.60
29571;DHT22;16814;52.118;11.436;2023-06-14T09:32:02;23.80;70.90
29571;DHT22;16814;52.118;11.436;2023-06-14T09:34:29;24.30;70.50
29571;DHT22;16814;52.118;11.436;2023-06-14T09:36:56;24.60;70.50
29571;DHT22;16814;52.118;11.436;2023-06-14T09:39:24;24.40;69.90
29571;DHT22;16814;52.118;11.436;2023-06-14T09:41:51;24.30;69.10
29571;DHT22;16814;52.118;11.436;2023-06-14T09:44:20;24.10;70.10
29571;DHT22;16814;52.118;11.436;2023-06-14T09:46:49;24.00;70.40
29571;DHT22;16814;52.118;11.436;2023-06-14T09:49:17;23.50;72.80
29571;DHT22;16814;52.118;11.436;2023-06-14T09:51:45;23.30;72.60
29571;DHT22;16814;52.118;11.436;2023-06-14T09:54:27;23.20;71.80
29571;DHT22;16814;52.118;11.436;2023-06-14T09:56:54;22.80;73.70
29571;DHT22;16814;52.118;11.436;2023-06-14T09:59:31;22.80;74.00
29571;DHT22;16814;52.118;11.436;2023-06-14T10:02:09;23.20;73.20
29571;DHT22;16814;52.118;11.436;2023-06-14T10:04:41;23.70;73.10
29571;DHT22;16814;52.118;11.436;2023-06-14T10:07:20;23.70;72.00
29571;DHT22;16814;52.118;11.436;2023-06-14T10:09:53;23.70;73.00
29571;DHT22;16814;52.118;11.436;2023-06-14T10:12:20;23.90;71.70
29571;DHT22;16814;52.118;11.436;2023-06-14T10:14:56;24.00;72.20
29571;DHT22;16814;52.118;11.436;2023-06-14T10:17:50;24.50;71.60
29571;DHT22;16814;52.118;11.436;2023-06-14T10:20:41;24.20;71.70
29571;DHT22;16814;52.118;11.436;2023-06-14T10:23:18;24.40;72.00
29571;DHT22;16814;52.118;11.436;2023-06-14T10:25:50;24.30;71.50
29571;DHT22;16814;52.118;11.436;2023-06-14T10:28:20;23.70;72.50
29571;DHT22;16814;52.118;11.436;2023-06-14T10:31:08;23.20;74.20
29571;DHT22;16814;52.118;11.436;2023-06-14T10:36:28;23.40;74.60
29571;DHT22;16814;52.118;11.436;2023-06-14T10:41:55;24.10;72.60
29571;DHT22;16814;52.118;11.436;2023-06-14T10:44:33;24.30;72.10
29571;DHT22;16814;52.118;11.436;2023-06-14T10:47:32;24.50;72.80
29571;DHT22;16814;52.118;11.436;2023-06-14T10:50:11;25.10;71.00
29571;DHT22;16814;52.118;11.436;2023-06-14T10:52:42;25.30;69.40
29571;DHT22;16814;52.118;11.436;2023-06-14T10:55:17;25.20;68.90
29571;DHT22;16814;52.118;11.436;2023-06-14T10:57:52;25.10;68.90
29571;DHT22;16814;52.118;11.436;2023-06-14T11:00:25;24.90;70.00
29571;DHT22;16814;52.118;11.436;2023-06-14T11:05:59;25.50;69.40
29571;DHT22;16814;52.118;11.436;2023-06-14T11:11:25;25.00;69.00
29571;DHT22;16814;52.118;11.436;2023-06-14T11:13:55;25.10;68.60
29571;DHT22;16814;52.118;11.436;2023-06-14T11:16:26;24.70;68.90
29571;DHT22;16814;52.118;11.436;2023-06-14T11:19:03;24.30;69.60
29571;DHT22;16814;52.118;11.436;2023-06-14T11:21:32;24.40;69.60
29571;DHT22;16814;52.118;11.436;2023-06-14T11:24:03;24.40;68.40
29571;DHT22;16814;52.118;11.436;2023-06-14T11:26:30;24.30;69.00
29571;DHT22;16814;52.118;11.436;2023-06-14T11:29:01;24.30;69.60
29571;DHT22;16814;52.118;11.436;2023-06-14T11:31:28;23.90;69.20
29571;DHT22;16814;52.118;11.436;2023-06-14T11:33:56;24.00;70.00
29571;DHT22;16814;52.118;11.436;2023-06-14T11:36:28;24.30;68.40
29571;DHT22;16814;52.118;11.436;2023-06-14T11:39:06;24.40;69.30
29571;DHT22;16814;52.118;11.436;2023-06-14T11:41:41;23.80;68.10
29571;DHT22;16814;52.118;11.436;2023-06-14T11:44:10;23.50;69.90
29571;DHT22;16814;52.118;11.436;2023-06-14T11:46:41;23.40;70.20
29571;DHT22;16814;52.118;11.436;2023-06-14T11:49:08;23.20;71.30
29571;DHT22;16814;52.118;11.436;2023-06-14T11:51:37;23.40;71.60
29571;DHT22;16814;52.118;11.436;2023-06-14T11:54:06;23.30;71.40
29571;DHT22;16814;52.118;11.436;2023-06-14T11:56:33;23.20;71.10
29571;DHT22;16814;52.118;11.436;2023-06-14T11:59:07;23.00;70.40
29571;DHT22;16814;52.118;11.436;2023-06-14T12:01:38;23.20;70.60
29571;DHT22;16814;52.118;11.436;2023-06-14T12:04:05;23.40;70.40
29571;DHT22;16814;52.118;11.436;2023-06-14T12:06:33;23.60;69.40
29571;DHT22;16814;52.118;11.436;2023-06-14T12:09:06;23.50;70.40
29571;DHT22;16814;52.118;11.436;2023-06-14T12:11:39;23.10;70.50
29571;DHT22;16814;52.118;11.436;2023-06-14T12:14:08;22.90;72.10
29571;DHT22;16814;52.118;11.436;2023-06-14T12:16:37;22.80;71.80
29571;DHT22;16814;52.118;11.436;2023-06-14T12:19:17;22.70;72.10
29571;DHT22;16814;52.118;11.436;2023-06-14T12:21:47;22.70;70.50
29571;DHT22;16814;52.118;11.436;2023-06-14T12:24:16;22.80;71.00
29571;DHT22;16814;52.118;11.436;2023-06-14T12:26:42;22.70;71.30
29571;DHT22;16814;52.118;11.436;2023-06-14T12:29:10;22.80;72.10
29571;DHT22;16814;52.118;11.436;2023-06-14T12:31:40;22.60;72.70
29571;DHT22;16814;52.118;11.436;2023-06-14T12:34:12;22.80;73.00
29571;DHT22;16814;52.118;11.436;2023-06-14T12:36:39;23.10;71.90
29571;DHT22;16814;52.118;11.436;2023-06-14T12:39:10;23.30;70.40
29571;DHT22;16814;52.118;11.436;2023-06-14T12:41:38;23.40;70.00
29571;DHT22;16814;52.118;11.436;2023-06-14T12:44:10;23.40;68.80
29571;DHT22;16814;52.118;11.436;2023-06-14T12:46:45;23.10;70.00
29571;DHT22;16814;52.118;11.436;2023-06-14T12:49:13;23.10;70.40
29571;DHT22;16814;52.118;11.436;2023-06-14T12:51:40;23.30;69.00
29571;DHT22;16814;52.118;11.436;2023-06-14T12:54:08;23.40;69.30
29571;DHT22;16814;52.118;11.436;2023-06-14T12:56:35;23.40;68.60
29571;DHT22;16814;52.118;11.436;2023-06-14T12:59:02;23.40;68.90
29571;DHT22;16814;52.118;11.436;2023-06-14T13:01:29;23.40;69.60
29571;DHT22;16814;52.118;11.436;2023-06-14T13:03:55;23.20;69.20
29571;DHT22;16814;52.118;11.436;2023-06-14T13:06:23;23.40;70.00
29571;DHT22;16814;52.118;11.436;2023-06-14T13:08:51;23.40;69.40
29571;DHT22;16814;52.118;11.436;2023-06-14T13:11:21;23.50;67.20
29571;DHT22;16814;52.118;11.436;2023-06-14T13:13:48;23.70;66.50
29571;DHT22;16814;52.118;11.436;2023-06-14T13:16:14;23.60;67.30
29571;DHT22;16814;52.118;11.436;2023-06-14T13:18:41;23.40;66.90
29571;DHT22;16814;52.118;11.436;2023-06-14T13:21:07;23.40;66.00
29571;DHT22;16814;52.118;11.436;2023-06-14T13:23:33;23.30;67.60
29571;DHT22;16814;52.118;11.436;2023-06-14T13:25:58;23.10;68.30
29571;DHT22;16814;52.118;11.436;2023-06-14T13:28:29;23.10;69.00
29571;DHT22;16814;52.118;11.436;2023-06-14T13:30:59;23.20;68.80
29571;DHT22;16814;52.118;11.436;2023-06-14T13:33:31;23.20;68.40
29571;DHT22;16814;52.118;11.436;2023-06-14T13:35:57;23.10;68.50
29571;DHT22;16814;52.118;11.436;2023-06-14T13:38:24;23.00;69.70
29571;DHT22;16814;52.118;11.436;2023-06-14T13:40:51;22.90;68.60
29571;DHT22;16814;52.118;11.436;2023-06-14T13:43:18;22.90;68.60
29571;DHT22;16814;52.118;11.436;2023-06-14T13:45:46;22.90;69.00
29571;DHT22;16814;52.118;11.436;2023-06-14T13:48:13;23.00;69.20
29571;DHT22;16814;52.118;11.436;2023-06-14T13:50:40;23.10;69.30
29571;DHT22;16814;52.118;11.436;2023-06-14T13:53:08;23.10;69.40
29571;DHT22;16814;52.118;11.436;2023-06-14T13:55:34;22.90;70.50
29571;DHT22;16814;52.118;11.436;2023-06-14T13:58:02;22.90;70.70
29571;DHT22;16814;52.118;11.436;2023-06-14T14:00:33;22.90;70.70
29571;DHT22;16814;52.118;11.436;2023-06-14T14:02:59;23.00;70.20
29571;DHT22;16814;52.118;11.436;2023-06-14T14:05:26;23.10;69.40
29571;DHT22;16814;52.118;11.436;2023-06-14T14:07:55;23.20;68.80
29571;DHT22;16814;52.118;11.436;2023-06-14T14:10:21;23.20;67.00
29571;DHT22;16814;52.118;11.436;2023-06-14T14:12:49;23.20;67.20
29571;DHT22;16814;52.118;11.436;2023-06-14T14:15:18;23.20;66.60
29571;DHT22;16814;52.118;11.436;2023-06-14T14:17:43;23.10;66.60
29571;DHT22;16814;52.118;11.436;2023-06-14T14:20:12;22.90;67.50
29571;DHT22;16814;52.118;11.436;2023-06-14T14:22:43;23.10;67.10
29571;DHT22;16814;52.118;11.436;2023-06-14T14:25:12;22.90;66.00
29571;DHT22;16814;52.118;11.436;2023-06-14T14:27:39;23.20;67.50
29571;DHT22;16814;52.118;11.436;2023-06-14T14:30:06;23.10;64.70
29571;DHT22;16814;52.118;11.436;2023-06-14T14:32:33;23.20;64.10
29571;DHT22;16814;52.118;11.436;2023-06-14T14:35:04;23.30;65.30
29571;DHT22;16814;52.118;11.436;2023-06-14T14:37:31;23.20;63.80
29571;DHT22;16814;52.118;11.436;2023-06-14T14:39:58;23.20;65.30
29571;DHT22;16814;52.118;11.436;2023-06-14T14:42:27;23.10;64.40
29571;DHT22;16814;52.118;11.436;2023-06-14T14:44:53;23.00;65.70
29571;DHT22;16814;52.118;11.436;2023-06-14T14:47:21;23.20;67.30
29571;DHT22;16814;52.118;11.436;2023-06-14T14:49:49;23.40;66.50
29571;DHT22;16814;52.118;11.436;2023-06-14T14:52:16;23.40;67.70
29571;DHT22;16814;52.118;11.436;2023-06-14T14:54:41;23.50;67.50
29571;DHT22;16814;52.118;11.436;2023-06-14T14:57:08;23.40;65.70
29571;DHT22;16814;52.118;11.436;2023-06-14T14:59:36;23.30;62.40
29571;DHT22;16814;52.118;11.436;2023-06-14T15:02:12;23.30;64.30
29571;DHT22;16814;52.118;11.436;2023-06-14T15:04:41;23.20;64.70
29571;DHT22;16814;52.118;11.436;2023-06-14T15:07:07;23.30;64.50
29571;DHT22;16814;52.118;11.436;2023-06-14T15:09:34;23.30;65.40
29571;DHT22;16814;52.118;11.436;2023-06-14T15:12:01;23.30;64.40
29571;DHT22;16814;52.118;11.436;2023-06-14T15:14:28;23.30;65.00
29571;DHT22;16814;52.118;11.436;2023-06-14T15:16:53;23.30;67.30
29571;DHT22;16814;52.118;11.436;2023-06-14T15:19:23;23.30;68.30
29571;DHT22;16814;52.118;11.436;2023-06-14T15:21:49;23.20;68.00
29571;DHT22;16814;52.118;11.436;2023-06-14T15:24:21;23.20;68.20
29571;DHT22;16814;52.118;11.436;2023-06-14T15:26:49;23.20;65.00
29571;DHT22;16814;52.118;11.436;2023-06-14T15:29:20;23.10;65.90
29571;DHT22;16814;52.118;11.436;2023-06-14T15:31:50;23.20;66.30
29571;DHT22;16814;52.118;11.436;2023-06-14T15:34:18;23.30;65.60
29571;DHT22;16814;52.118;11.436;2023-06-14T15:36:48;23.30;64.00
29571;DHT22;16814;52.118;11.436;2023-06-14T15:39:15;23.10;65.20